Time;durP1;ratioP1;P1;durP2;ratioP2;P2;SDS_P1;SDS_P2;PMS_P1;PMS_P2;Temp;Humidity;BMP_temperature;BMP_pressure;BME280_temperature;BME280_humidity;BME280_pressure;Samples;Min_cycle;Max_cycle;Signal;HPM_P1;HPM_P2
2022/11/29 00:02:22;;;;;;;32.40;14.50;;;;;;;5.43;100.00;95960.44;5056673;28;20204;-70
2022/11/29 00:04:49;;;;;;;28.33;13.53;;;;;;;5.46;100.00;95961.91;5055322;28;20234;-70
2022/11/29 00:07:16;;;;;;;28.70;12.57;;;;;;;5.42;100.00;95973.63;5055908;28;21012;-70
2022/11/29 00:09:42;;;;;;;34.27;14.90;;;;;;;5.43;100.00;95956.97;5056455;28;20680;-70
2022/11/29 00:12:12;;;;;;;31.77;14.67;;;;;;;5.43;100.00;95958.78;5056029;28;20215;-70
2022/11/29 00:14:39;;;;;;;29.93;14.40;;;;;;;5.42;100.00;95957.13;5055266;28;20319;-70
2022/11/29 00:17:06;;;;;;;34.27;14.97;;;;;;;5.51;100.00;95959.63;5056203;28;20204;-70
2022/11/29 00:19:33;;;;;;;32.00;13.93;;;;;;;5.51;100.00;95962.25;5056323;28;20211;-70
2022/11/29 00:22:03;;;;;;;33.53;14.97;;;;;;;5.52;100.00;95958.66;5056661;28;20308;-70
2022/11/29 00:24:31;;;;;;;39.70;16.00;;;;;;;5.44;100.00;95954.22;5055904;28;20586;-70
2022/11/29 00:26:57;;;;;;;31.03;13.67;;;;;;;5.43;100.00;95965.66;5055859;28;20224;-70
2022/11/29 00:29:24;;;;;;;32.00;14.47;;;;;;;5.43;100.00;95958.78;5054783;28;20857;-70
2022/11/29 00:31:51;;;;;;;32.83;14.47;;;;;;;5.48;100.00;95954.72;5056662;28;20209;-70
2022/11/29 00:34:17;;;;;;;31.40;13.27;;;;;;;5.47;100.00;95956.53;5055061;28;20224;-70
2022/11/29 00:36:44;;;;;;;31.13;14.67;;;;;;;5.47;100.00;95960.91;5055936;28;20197;-70
2022/11/29 00:39:12;;;;;;;35.00;15.17;;;;;;;5.56;100.00;95960.00;5056106;28;20837;-70
2022/11/29 00:41:39;;;;;;;32.27;13.73;;;;;;;5.55;100.00;95958.38;5056179;28;20202;-70
2022/11/29 00:44:06;;;;;;;35.07;14.23;;;;;;;5.54;100.00;95954.94;5055032;28;20208;-70
2022/11/29 00:46:33;;;;;;;33.10;13.77;;;;;;;5.52;100.00;95951.69;5056025;28;20220;-70
2022/11/29 00:48:59;;;;;;;35.53;15.47;;;;;;;5.56;100.00;95950.38;5055984;28;20211;-70
2022/11/29 00:51:26;;;;;;;33.67;14.40;;;;;;;5.56;100.00;95957.38;5055803;28;20238;-70
2022/11/29 00:53:52;;;;;;;36.07;14.93;;;;;;;5.55;100.00;95947.94;5054900;28;20200;-70
2022/11/29 00:56:20;;;;;;;36.47;14.70;;;;;;;5.63;100.00;95954.00;5055232;28;20216;-70
2022/11/29 00:58:48;;;;;;;39.17;15.50;;;;;;;5.55;100.00;95950.56;5055559;28;20204;-70
2022/11/29 01:01:15;;;;;;;33.77;14.37;;;;;;;5.53;100.00;95955.09;5057297;28;20266;-70
2022/11/29 01:03:41;;;;;;;34.90;14.83;;;;;;;5.54;100.00;95949.72;5058328;28;20200;-70
2022/11/29 01:06:10;;;;;;;32.00;14.10;;;;;;;5.60;100.00;95950.88;5059055;28;20228;-70
2022/11/29 01:08:37;;;;;;;26.87;13.33;;;;;;;5.61;100.00;95952.53;5059678;28;20215;-70
2022/11/29 01:11:07;;;;;;;37.47;15.53;;;;;;;5.70;100.00;95951.59;5059326;28;21114;-70
2022/11/29 01:13:35;;;;;;;31.30;14.17;;;;;;;5.66;100.00;95956.31;5058461;28;21079;-70
2022/11/29 01:16:02;;;;;;;31.83;13.87;;;;;;;5.62;100.00;95954.97;5058325;28;20220;-70
2022/11/29 01:18:29;;;;;;;33.03;14.03;;;;;;;5.61;100.00;95955.13;5059340;28;20204;-70
2022/11/29 01:20:58;;;;;;;30.83;13.80;;;;;;;5.71;100.00;95961.09;5059051;28;20294;-70
2022/11/29 01:23:24;;;;;;;35.27;15.33;;;;;;;5.67;100.00;95951.91;5058855;28;20208;-70
2022/11/29 01:25:59;;;;;;;28.73;13.80;;;;;;;5.71;100.00;95958.47;5058148;28;20228;-70
2022/11/29 01:28:26;;;;;;;31.37;14.00;;;;;;;5.64;100.00;95947.00;5059010;28;20204;-70
2022/11/29 01:30:54;;;;;;;36.13;15.20;;;;;;;5.65;100.00;95948.63;5059133;28;20676;-70
2022/11/29 01:33:21;;;;;;;35.67;14.33;;;;;;;5.62;100.00;95944.53;5058583;28;21176;-70
2022/11/29 01:35:49;;;;;;;30.93;14.40;;;;;;;5.64;100.00;95952.25;5057724;28;20704;-70
2022/11/29 01:38:15;;;;;;;34.50;14.90;;;;;;;5.61;100.00;95953.38;5058887;28;20211;-70
2022/11/29 01:40:42;;;;;;;31.93;14.43;;;;;;;5.61;100.00;95960.38;5059501;28;20196;-70
2022/11/29 01:43:15;;;;;;;26.93;13.73;;;;;;;5.69;100.00;95958.63;5058092;28;20208;-70
2022/11/29 01:45:41;;;;;;;29.17;14.17;;;;;;;5.65;100.00;95953.84;5057587;28;20224;-70
2022/11/29 01:48:10;;;;;;;32.67;14.80;;;;;;;5.71;100.00;95953.25;5058989;28;20697;-70
2022/11/29 01:50:38;;;;;;;33.20;13.47;;;;;;;5.70;100.00;95946.38;5058739;28;20211;-70
2022/11/29 01:53:06;;;;;;;35.13;14.83;;;;;;;5.69;100.00;95957.78;5058865;28;20247;-70
2022/11/29 01:55:33;;;;;;;32.23;14.63;;;;;;;5.69;100.00;95952.56;5057479;28;20224;-70
2022/11/29 01:58:00;;;;;;;28.27;13.13;;;;;;;5.68;100.00;95953.56;5058291;28;20200;-70
2022/11/29 02:00:27;;;;;;;36.83;14.37;;;;;;;5.69;100.00;95952.56;5058243;28;20201;-69
2022/11/29 02:02:59;;;;;;;31.27;14.33;;;;;;;5.76;100.00;95951.84;5058774;28;20205;-70
2022/11/29 02:05:27;;;;;;;35.97;14.20;;;;;;;5.74;100.00;95951.16;5057729;28;20230;-69
2022/11/29 02:07:58;;;;;;;30.53;13.13;;;;;;;5.74;100.00;95948.53;5058227;28;20232;-69
2022/11/29 02:10:36;;;;;;;30.67;13.53;;;;;;;5.74;100.00;95952.94;5058244;28;20210;-69
2022/11/29 02:13:15;;;;;;;27.57;13.30;;;;;;;5.82;100.00;95945.19;5057832;28;20711;-70
2022/11/29 02:15:49;;;;;;;29.37;13.27;;;;;;;5.76;100.00;95948.41;5057185;28;20224;-70
2022/11/29 02:18:22;;;;;;;30.43;13.90;;;;;;;5.77;100.00;95948.25;5058013;28;20211;-70
2022/11/29 02:21:09;;;;;;;33.70;14.17;;;;;;;5.80;100.00;95944.50;5057819;28;20208;-70
2022/11/29 02:24:14;;;;;;;30.90;12.70;;;;;;;5.82;100.00;95945.19;5057346;28;20201;-69
2022/11/29 02:27:01;;;;;;;28.47;13.17;;;;;;;5.81;100.00;95943.53;5057942;28;20587;-70
2022/11/29 02:30:03;;;;;;;27.33;13.30;;;;;;;5.83;100.00;95949.41;5057036;28;20197;-69
2022/11/29 02:33:15;;;;;;;31.63;13.30;;;;;;;5.81;100.00;95946.97;5057651;28;20204;-69
2022/11/29 02:36:11;;;;;;;30.13;13.30;;;;;;;5.83;100.00;95936.34;5055876;28;20315;-70
2022/11/29 02:39:01;;;;;;;30.63;13.83;;;;;;;5.81;100.00;95938.31;5057057;28;20250;-70
2022/11/29 02:41:46;;;;;;;31.23;14.10;;;;;;;5.79;100.00;95945.47;5057894;28;20572;-70
2022/11/29 02:44:41;;;;;;;26.33;12.73;;;;;;;5.76;100.00;95941.38;5056609;28;20213;-70
2022/11/29 02:47:24;;;;;;;32.93;13.47;;;;;;;5.75;100.00;95949.34;5057819;28;20224;-70
2022/11/29 02:50:10;;;;;;;32.00;13.53;;;;;;;5.79;100.00;95945.47;5058913;28;20214;-69
2022/11/29 02:52:46;;;;;;;29.17;13.20;;;;;;;5.76;100.00;95946.59;5057108;28;20258;-70
2022/11/29 02:55:19;;;;;;;30.50;12.73;;;;;;;5.74;100.00;95945.94;5056334;28;20232;-69
2022/11/29 02:58:00;;;;;;;31.40;13.60;;;;;;;5.74;100.00;95942.47;5058132;28;20199;-69
2022/11/29 03:00:27;;;;;;;41.70;14.53;;;;;;;5.72;100.00;95947.06;5056963;28;20204;-69
2022/11/29 03:03:03;;;;;;;27.23;13.37;;;;;;;5.78;100.00;95941.22;5057283;28;20215;-69
2022/11/29 03:05:40;;;;;;;26.73;13.60;;;;;;;5.84;100.00;95951.06;5056532;28;20223;-69
2022/11/29 03:08:16;;;;;;;34.03;13.20;;;;;;;5.83;100.00;95958.09;5056670;28;20231;-69
2022/11/29 03:10:55;;;;;;;29.47;13.23;;;;;;;5.84;100.00;95949.28;5057278;28;20214;-70
2022/11/29 03:13:31;;;;;;;28.00;12.57;;;;;;;5.86;100.00;95954.34;5056633;28;20215;-70
2022/11/29 03:16:01;;;;;;;36.50;13.97;;;;;;;5.84;100.00;95962.38;5056637;28;20220;-69
2022/11/29 03:18:37;;;;;;;34.63;13.67;;;;;;;5.86;100.00;95964.81;5057258;28;20204;-69
2022/11/29 03:21:12;;;;;;;30.40;12.77;;;;;;;5.86;100.00;95963.00;5057088;28;20204;-70
2022/11/29 03:23:45;;;;;;;27.87;12.93;;;;;;;5.85;100.00;95963.16;5055052;28;20204;-69
2022/11/29 03:26:16;;;;;;;29.13;13.83;;;;;;;5.87;100.00;95969.88;5056846;28;20232;-70
2022/11/29 03:28:48;;;;;;;31.43;13.30;;;;;;;5.88;100.00;95970.69;5057091;28;20535;-69
2022/11/29 03:31:21;;;;;;;26.53;12.90;;;;;;;5.88;100.00;95966.31;5056728;28;20211;-69
2022/11/29 03:33:53;;;;;;;28.37;13.47;;;;;;;5.91;100.00;95965.16;5055846;28;20207;-70
2022/11/29 03:36:29;;;;;;;28.93;13.03;;;;;;;5.94;100.00;95970.09;5056884;28;20224;-70
2022/11/29 03:39:02;;;;;;;30.43;12.90;;;;;;;5.91;100.00;95965.97;5056323;28;20207;-69
2022/11/29 03:41:37;;;;;;;31.70;13.33;;;;;;;5.91;100.00;95975.63;5056603;28;20200;-69
2022/11/29 03:44:13;;;;;;;28.47;13.13;;;;;;;5.90;100.00;95979.22;5055469;28;20204;-70
2022/11/29 03:46:47;;;;;;;30.13;14.00;;;;;;;5.93;100.00;95981.50;5056530;28;20228;-70
2022/11/29 03:49:20;;;;;;;32.47;13.07;;;;;;;5.91;100.00;95971.22;5055790;28;20672;-70
2022/11/29 03:51:59;;;;;;;30.47;14.03;;;;;;;5.95;100.00;95977.75;5057074;28;20348;-70
2022/11/29 03:54:32;;;;;;;30.07;13.07;;;;;;;5.90;100.00;95976.59;5055659;28;20231;-70
2022/11/29 03:56:59;;;;;;;34.70;14.07;;;;;;;5.90;100.00;95973.97;5055247;28;20203;-70
2022/11/29 03:59:52;;;;;;;28.70;13.57;;;;;;;6.03;100.00;95979.59;5057772;28;20205;-70
2022/11/29 04:02:56;;;;;;;26.93;13.67;;;;;;;6.02;100.00;95972.72;5055715;28;20223;-69
2022/11/29 04:05:37;;;;;;;29.87;13.97;;;;;;;5.99;100.00;95968.63;5055901;28;20231;-70
2022/11/29 04:08:26;;;;;;;30.93;12.47;;;;;;;6.03;100.00;95975.19;5056464;28;20239;-69
2022/11/29 04:11:28;;;;;;;30.27;13.53;;;;;;;6.06;100.00;95974.91;5055615;28;20207;-70
2022/11/29 04:14:13;;;;;;;27.30;12.50;;;;;;;6.05;100.00;95971.44;5055772;28;20200;-70
2022/11/29 04:17:12;;;;;;;28.70;12.40;;;;;;;6.08;100.00;95979.00;5056176;28;21075;-70
2022/11/29 04:20:06;;;;;;;29.70;12.47;;;;;;;6.10;100.00;95973.59;5055597;28;21138;-70
2022/11/29 04:23:07;;;;;;;28.30;12.63;;;;;;;6.12;100.00;95982.09;5056421;28;20219;-69
2022/11/29 04:25:58;;;;;;;27.10;12.20;;;;;;;6.11;100.00;95981.28;5030932;28;20232;-70
2022/11/29 04:28:57;;;;;;;23.97;11.80;;;;;;;6.12;100.00;95975.09;5056012;28;20228;-69
2022/11/29 04:31:36;;;;;;;28.63;12.40;;;;;;;6.12;100.00;95980.31;5056122;28;20629;-70
2022/11/29 04:34:19;;;;;;;33.33;13.17;;;;;;;6.16;100.00;95979.03;5055632;28;20207;-69
2022/11/29 04:37:08;;;;;;;33.90;13.63;;;;;;;6.17;100.00;95980.69;5058075;28;20219;-70
2022/11/29 04:39:57;;;;;;;29.40;13.20;;;;;;;6.20;100.00;95977.72;5059889;28;20204;-70
2022/11/29 04:42:49;;;;;;;34.20;12.97;;;;;;;6.22;100.00;95982.81;5059447;28;20205;-69
2022/11/29 04:45:44;;;;;;;29.87;13.20;;;;;;;6.23;100.00;95987.88;5058267;28;20232;-69
2022/11/29 04:48:28;;;;;;;30.80;12.80;;;;;;;6.22;100.00;95983.66;5059605;28;20235;-69
2022/11/29 04:51:06;;;;;;;29.20;13.53;;;;;;;6.23;100.00;95990.50;5059636;28;20209;-69
2022/11/29 04:53:47;;;;;;;34.53;13.50;;;;;;;6.26;100.00;95991.97;5059480;28;20210;-70
2022/11/29 04:56:23;;;;;;;27.93;13.33;;;;;;;6.27;100.00;95988.38;5059313;28;20228;-69
2022/11/29 04:58:59;;;;;;;31.67;14.70;;;;;;;6.29;100.00;95994.31;5059445;28;20201;-70
2022/11/29 05:01:35;;;;;;;30.17;12.53;;;;;;;6.31;100.00;95994.94;5060215;28;20208;-70
2022/11/29 05:04:11;;;;;;;28.73;11.73;;;;;;;6.31;100.00;95990.56;5058469;28;20208;-69
2022/11/29 05:06:45;;;;;;;26.80;13.77;;;;;;;6.30;100.00;95991.53;5058441;28;20200;-69
2022/11/29 05:09:22;;;;;;;32.30;12.83;;;;;;;6.32;100.00;95999.22;5060184;28;20211;-70
2022/11/29 05:12:00;;;;;;;32.30;13.57;;;;;;;6.36;100.00;95997.91;5059585;28;20240;-69
2022/11/29 05:14:50;;;;;;;31.53;13.13;;;;;;;6.38;100.00;95999.41;5058404;28;20212;-69
2022/11/29 05:17:31;;;;;;;28.80;13.90;;;;;;;6.39;100.00;95992.34;5059222;28;20204;-69
2022/11/29 05:20:22;;;;;;;29.37;13.27;;;;;;;6.44;100.00;96004.00;5059343;28;20200;-70
2022/11/29 05:23:03;;;;;;;28.53;13.40;;;;;;;6.41;100.00;96004.31;5058674;28;20205;-70
2022/11/29 05:25:38;;;;;;;31.70;14.17;;;;;;;6.42;100.00;96000.72;5058400;28;20224;-69
2022/11/29 05:28:11;;;;;;;44.03;16.90;;;;;;;6.43;100.00;96007.59;5059305;28;20979;-70
2022/11/29 05:31:06;;;;;;;36.37;15.20;;;;;;;6.47;100.00;96005.50;5059069;28;20212;-69
2022/11/29 05:33:49;;;;;;;33.47;15.00;;;;;;;6.47;100.00;96005.50;5058563;28;20201;-69
2022/11/29 05:36:25;;;;;;;30.10;13.77;;;;;;;6.47;100.00;96001.06;5058620;28;20232;-70
2022/11/29 05:39:13;;;;;;;41.20;15.87;;;;;;;6.51;100.00;96006.81;5058847;28;20571;-70
2022/11/29 05:41:57;;;;;;;32.27;13.60;;;;;;;6.50;100.00;96011.22;5058464;28;20204;-69
2022/11/29 05:44:31;;;;;;;33.87;14.57;;;;;;;6.46;100.00;96012.50;5057624;28;20281;-70
2022/11/29 05:47:02;;;;;;;35.00;13.87;;;;;;;6.51;100.00;96017.28;5057939;28;20315;-69
2022/11/29 05:49:40;;;;;;;29.53;13.50;;;;;;;6.54;100.00;96012.53;5059019;28;20201;-69
2022/11/29 05:52:23;;;;;;;28.27;13.23;;;;;;;6.56;100.00;96020.25;5058636;28;20215;-69
2022/11/29 05:55:02;;;;;;;38.23;17.23;;;;;;;6.54;100.00;96020.38;5057247;28;20259;-70
2022/11/29 05:57:37;;;;;;;34.83;15.87;;;;;;;6.49;100.00;96019.22;5058898;28;20255;-70
2022/11/29 06:00:05;;;;;;;36.23;16.80;;;;;;;6.48;100.00;96022.81;5058886;28;20683;-70
2022/11/29 06:02:48;;;;;;;37.77;16.40;;;;;;;6.53;100.00;96026.63;5059315;28;20207;-70
2022/11/29 06:05:24;;;;;;;46.27;18.63;;;;;;;6.52;100.00;96019.75;5058304;28;20609;-70
2022/11/29 06:07:56;;;;;;;44.93;19.13;;;;;;;6.54;100.00;96028.25;5059514;28;20235;-69
2022/11/29 06:10:27;;;;;;;47.67;19.73;;;;;;;6.54;100.00;96023.00;5058506;28;20209;-69
2022/11/29 06:13:04;;;;;;;36.23;16.80;;;;;;;6.55;100.00;96027.25;5058152;28;20212;-69
2022/11/29 06:16:17;;;;;;;40.47;16.47;;;;;;;6.62;100.00;96025.69;5056896;28;20216;-69
2022/11/29 06:19:11;;;;;;;30.80;14.07;;;;;;;6.66;100.00;96037.47;5051855;28;20200;-69
2022/11/29 06:21:44;;;;;;;36.33;15.37;;;;;;;6.60;100.00;96037.28;5049011;28;21073;-69
2022/11/29 06:24:33;;;;;;;33.37;16.03;;;;;;;6.65;100.00;96041.06;5057007;28;20215;-69
2022/11/29 06:27:28;;;;;;;36.87;16.33;;;;;;;6.66;100.00;96042.69;5058107;28;20196;-69
2022/11/29 06:30:02;;;;;;;30.07;14.27;;;;;;;6.63;100.00;96043.00;5057919;28;20208;-69
2022/11/29 06:32:35;;;;;;;31.93;14.33;;;;;;;6.65;100.00;96046.28;5057382;28;20201;-70
2022/11/29 06:35:09;;;;;;;32.90;14.60;;;;;;;6.68;100.00;96043.34;5057363;28;20228;-70
2022/11/29 06:37:39;;;;;;;35.37;15.40;;;;;;;6.71;100.00;96043.06;5057956;28;20192;-70
2022/11/29 06:40:11;;;;;;;36.83;14.60;;;;;;;6.67;100.00;96044.34;5055317;28;20295;-70
2022/11/29 06:42:38;;;;;;;31.30;15.30;;;;;;;6.60;100.00;96048.56;5057294;28;20200;-70
2022/11/29 06:45:05;;;;;;;32.67;15.50;;;;;;;6.64;100.00;96055.13;5057110;28;20240;-70
2022/11/29 06:47:39;;;;;;;37.17;15.30;;;;;;;6.70;100.00;96054.50;5056943;28;20224;-70
2022/11/29 06:50:23;;;;;;;37.93;15.93;;;;;;;6.68;100.00;96051.19;5057393;28;20211;-70
2022/11/29 06:53:00;;;;;;;34.00;14.93;;;;;;;6.72;100.00;96060.38;5057127;28;20211;-70
2022/11/29 06:55:33;;;;;;;40.13;16.57;;;;;;;6.67;100.00;96060.06;5056103;28;21107;-70
2022/11/29 06:58:09;;;;;;;36.67;16.37;;;;;;;6.66;100.00;96058.41;5057004;28;20664;-71
2022/11/29 07:00:43;;;;;;;31.13;14.80;;;;;;;6.73;100.00;96065.47;5056978;28;20207;-70
2022/11/29 07:03:44;;;;;;;37.97;16.10;;;;;;;6.75;100.00;96067.94;5056316;28;20210;-69
2022/11/29 07:06:21;;;;;;;34.67;15.27;;;;;;;6.76;100.00;96067.78;5046095;28;20731;-70
2022/11/29 07:08:53;;;;;;;40.83;15.90;;;;;;;6.66;100.00;96063.66;5057120;28;20235;-70
2022/11/29 07:11:20;;;;;;;33.97;14.77;;;;;;;6.56;100.00;96072.59;5057206;28;20587;-71
2022/11/29 07:13:47;;;;;;;39.13;14.73;;;;;;;6.67;100.00;96067.91;5056218;28;20713;-69
2022/11/29 07:16:21;;;;;;;32.20;13.73;;;;;;;6.70;100.00;96070.22;5057388;28;20732;-69
2022/11/29 07:18:57;;;;;;;32.10;13.27;;;;;;;6.66;100.00;96074.13;5056663;28;20197;-70
2022/11/29 07:21:44;;;;;;;34.47;14.33;;;;;;;6.65;100.00;96072.47;5058041;28;20249;-70
2022/11/29 07:24:27;;;;;;;36.07;15.60;;;;;;;6.76;100.00;96074.81;5057495;28;20204;-70
2022/11/29 07:27:03;;;;;;;40.23;16.10;;;;;;;6.65;100.00;96076.91;5056339;28;20200;-69
2022/11/29 07:29:39;;;;;;;43.93;17.37;;;;;;;6.78;100.00;96078.09;5057494;28;20200;-71
2022/11/29 07:32:14;;;;;;;40.17;15.80;;;;;;;6.81;100.00;96078.59;5056408;28;20561;-70
2022/11/29 07:34:54;;;;;;;36.43;16.53;;;;;;;6.81;100.00;96080.38;5056084;28;20223;-70
2022/11/29 07:37:33;;;;;;;34.27;14.33;;;;;;;6.82;100.00;96074.16;5057037;28;20211;-71
2022/11/29 07:40:05;;;;;;;34.93;14.93;;;;;;;6.85;100.00;96081.72;5056600;28;21230;-70
2022/11/29 07:42:42;;;;;;;38.97;15.63;;;;;;;6.94;100.00;96086.03;5056732;28;20215;-70
2022/11/29 07:45:19;;;;;;;35.80;14.97;;;;;;;6.95;100.00;96085.00;5055999;28;20446;-69
2022/11/29 07:47:46;;;;;;;34.00;14.67;;;;;;;6.84;100.00;96085.31;5056907;28;20239;-70
2022/11/29 07:50:13;;;;;;;40.53;14.97;;;;;;;6.82;100.00;96082.03;5056807;28;21032;-70
2022/11/29 07:52:41;;;;;;;38.03;15.37;;;;;;;6.82;100.00;96082.03;5056793;28;20200;-70
2022/11/29 07:55:12;;;;;;;33.90;15.03;;;;;;;6.88;100.00;96084.03;5055715;28;20220;-70
2022/11/29 07:57:39;;;;;;;33.80;14.70;;;;;;;6.81;100.00;96088.22;5056592;28;20204;-71
2022/11/29 08:00:07;;;;;;;37.10;15.17;;;;;;;6.90;100.00;96087.31;5056409;28;20201;-70
2022/11/29 08:02:33;;;;;;;33.00;14.77;;;;;;;6.92;100.00;96090.59;5056159;28;20200;-71
2022/11/29 08:05:00;;;;;;;39.57;16.97;;;;;;;6.90;100.00;96095.97;5056143;28;20239;-71
2022/11/29 08:07:27;;;;;;;43.60;16.53;;;;;;;7.00;100.00;96093.22;5056597;28;20208;-70
2022/11/29 08:09:55;;;;;;;34.43;15.67;;;;;;;7.07;100.00;96089.00;5057179;28;20683;-70
2022/11/29 08:12:21;;;;;;;37.33;15.47;;;;;;;6.97;100.00;96099.59;5060361;28;20197;-70
2022/11/29 08:14:48;;;;;;;35.70;15.87;;;;;;;6.94;100.00;96093.88;5059902;28;20616;-70
2022/11/29 08:17:14;;;;;;;38.03;15.73;;;;;;;6.97;100.00;96089.13;5059507;28;20678;-70
2022/11/29 08:19:41;;;;;;;31.37;15.27;;;;;;;7.01;100.00;96102.72;5060742;28;21120;-70
2022/11/29 08:22:07;;;;;;;32.83;13.63;;;;;;;7.03;100.00;96103.41;5059866;28;20205;-71
2022/11/29 08:24:34;;;;;;;33.93;14.30;;;;;;;7.02;100.00;96097.31;5059295;28;20216;-70
2022/11/29 08:27:02;;;;;;;36.83;14.67;;;;;;;7.07;100.00;96104.72;5059630;28;20766;-70
2022/11/29 08:29:28;;;;;;;33.60;14.23;;;;;;;7.05;100.00;96104.06;5060754;28;20699;-70
2022/11/29 08:31:55;;;;;;;37.33;14.97;;;;;;;7.02;100.00;96102.56;5058672;28;20602;-70
2022/11/29 08:34:23;;;;;;;33.17;14.47;;;;;;;7.10;100.00;96109.63;5058754;28;20228;-70
2022/11/29 08:36:49;;;;;;;38.77;15.30;;;;;;;7.08;100.00;96106.38;5060762;28;20713;-71
2022/11/29 08:39:16;;;;;;;38.40;15.10;;;;;;;7.11;100.00;96116.53;5059812;28;20569;-70
2022/11/29 08:41:43;;;;;;;36.37;15.23;;;;;;;7.13;100.00;96114.53;5059843;28;20211;-70
2022/11/29 08:44:11;;;;;;;34.70;16.07;;;;;;;7.16;100.00;96114.25;5059104;28;20215;-70
2022/11/29 08:49:22;;;;;;;44.60;18.30;;;;;;;7.23;100.00;96110.00;5058789;28;20285;-70
2022/11/29 08:51:51;;;;;;;48.30;20.10;;;;;;;7.33;100.00;96106.25;5059826;28;20218;-70
2022/11/29 08:54:16;;;;;;;50.40;22.17;;;;;;;7.24;100.00;96119.50;5059328;28;20204;-70
2022/11/29 08:56:43;;;;;;;46.97;18.40;;;;;;;7.25;100.00;96118.53;5059561;28;20197;-70
2022/11/29 08:59:11;;;;;;;34.93;16.67;;;;;;;7.22;100.00;96110.97;5059504;28;20698;-70
2022/11/29 09:01:37;;;;;;;42.83;15.33;;;;;;;7.17;100.00;96118.53;5059632;28;20205;-70
2022/11/29 09:04:05;;;;;;;35.50;15.53;;;;;;;7.18;100.00;96120.13;5058119;28;21086;-70
2022/11/29 09:06:37;;;;;;;38.20;14.80;;;;;;;7.22;100.00;96119.66;5058133;28;20219;-70
2022/11/29 09:09:04;;;;;;;37.33;16.97;;;;;;;7.07;100.00;96120.44;5059591;28;20231;-70
2022/11/29 09:11:33;;;;;;;36.40;15.80;;;;;;;7.21;100.00;96125.06;5055996;28;20196;-70
2022/11/29 09:14:01;;;;;;;35.93;17.20;;;;;;;7.19;100.00;96124.41;5056538;28;20207;-70
2022/11/29 09:16:33;;;;;;;37.50;16.47;;;;;;;7.10;100.00;96130.59;5058016;28;20196;-70
2022/11/29 09:18:59;;;;;;;39.33;15.77;;;;;;;7.13;100.00;96125.88;5057747;28;20703;-70
2022/11/29 09:21:29;;;;;;;38.77;16.77;;;;;;;7.20;100.00;96131.28;5057559;28;20204;-71
2022/11/29 09:23:58;;;;;;;41.93;15.90;;;;;;;7.20;100.00;96136.53;5057698;28;20227;-71
2022/11/29 09:26:27;;;;;;;42.13;16.57;;;;;;;7.26;100.00;96135.91;5057911;28;20220;-70
2022/11/29 09:28:56;;;;;;;44.23;16.70;;;;;;;7.23;100.00;96130.97;5057406;28;20243;-71
2022/11/29 09:31:23;;;;;;;42.60;17.70;;;;;;;7.34;100.00;96134.94;5057637;28;20261;-70
2022/11/29 09:33:51;;;;;;;42.67;17.83;;;;;;;7.40;100.00;96142.16;5057267;28;20204;-70
2022/11/29 09:36:18;;;;;;;40.30;17.63;;;;;;;7.39;100.00;96145.75;5058197;28;20235;-71
2022/11/29 09:38:44;;;;;;;42.30;17.57;;;;;;;7.43;100.00;96141.84;5057448;28;20571;-70
2022/11/29 09:41:34;;;;;;;44.07;18.90;;;;;;;7.57;100.00;96143.00;5058250;28;20208;-70
2022/11/29 09:44:08;;;;;;;49.47;20.63;;;;;;;7.58;100.00;96145.47;5054982;28;20208;-70
2022/11/29 09:46:48;;;;;;;44.90;18.67;;;;;;;7.65;100.00;96143.03;5057226;28;20197;-70
2022/11/29 09:49:33;;;;;;;40.33;17.53;;;;;;;7.62;100.00;96143.34;5057376;28;20228;-70
2022/11/29 09:52:11;;;;;;;46.30;18.63;;;;;;;7.65;100.00;96149.09;5058765;28;20201;-70
2022/11/29 09:54:42;;;;;;;48.37;17.43;;;;;;;7.57;100.00;96149.06;5056761;28;20585;-71
2022/11/29 09:57:10;;;;;;;43.17;17.40;;;;;;;7.57;100.00;96150.88;5057548;28;20215;-70
2022/11/29 09:59:41;;;;;;;41.17;16.53;;;;;;;7.61;100.00;96146.94;5057870;28;20212;-70
2022/11/29 10:02:16;;;;;;;38.37;16.37;;;;;;;7.70;100.00;96152.06;5057628;28;20205;-71
2022/11/29 10:04:50;;;;;;;43.33;16.50;;;;;;;7.68;100.00;96140.91;5055922;28;20220;-70
2022/11/29 10:07:21;;;;;;;38.53;15.37;;;;;;;7.60;100.00;96148.75;5056721;28;20212;-70
2022/11/29 10:09:54;;;;;;;51.07;20.60;;;;;;;7.71;100.00;96148.44;5056132;28;20247;-70
2022/11/29 10:12:26;;;;;;;45.93;18.30;;;;;;;7.71;100.00;96148.44;5054291;28;20586;-71
2022/11/29 10:15:00;;;;;;;42.10;17.07;;;;;;;7.76;100.00;96151.41;5056239;28;20231;-70
2022/11/29 10:17:34;;;;;;;38.83;16.60;;;;;;;7.70;100.00;96146.81;5056608;28;20207;-70
2022/11/29 10:20:06;;;;;;;38.33;16.57;;;;;;;7.80;100.00;96150.09;5057035;28;20672;-70
2022/11/29 10:22:40;;;;;;;40.00;15.97;;;;;;;7.77;100.00;96141.75;5056525;28;20207;-71
2022/11/29 10:25:10;;;;;;;39.40;17.07;;;;;;;7.74;100.00;96147.28;5054931;28;20232;-71
2022/11/29 10:27:40;;;;;;;41.90;17.07;;;;;;;7.78;100.00;96138.94;5056266;28;20212;-71
2022/11/29 10:30:13;;;;;;;36.20;15.23;;;;;;;7.79;100.00;96145.84;5056928;28;20452;-71
2022/11/29 10:32:40;;;;;;;43.17;17.17;;;;;;;7.66;100.00;96148.13;5056735;28;20224;-71
2022/11/29 10:35:13;;;;;;;39.20;15.87;;;;;;;7.66;100.00;96145.50;5055323;28;20236;-72
2022/11/29 10:37:40;;;;;;;38.13;15.40;;;;;;;7.58;100.00;96142.84;5056275;28;20637;-71
2022/11/29 10:40:14;;;;;;;35.87;15.80;;;;;;;7.74;100.00;96139.44;5055869;28;20231;-72
2022/11/29 10:42:51;;;;;;;39.57;14.90;;;;;;;7.71;100.00;96140.56;5056447;28;20199;-71
2022/11/29 10:45:25;;;;;;;37.13;15.60;;;;;;;7.88;100.00;96134.38;5055420;28;20642;-72
2022/11/29 10:47:54;;;;;;;37.50;14.67;;;;;;;7.77;100.00;96139.13;5056290;28;20224;-71
2022/11/29 10:50:24;;;;;;;36.13;14.90;;;;;;;7.85;100.00;96134.69;5056639;28;20200;-71
2022/11/29 10:52:51;;;;;;;35.60;15.23;;;;;;;7.82;100.00;96136.84;5057145;28;20211;-71
2022/11/29 10:55:18;;;;;;;35.10;14.67;;;;;;;7.80;100.00;96147.47;5055986;28;20739;-72
2022/11/29 10:58:11;;;;;;;39.60;15.07;;;;;;;7.92;100.00;96141.75;5056813;28;20196;-71
2022/11/29 11:00:52;;;;;;;42.20;16.17;;;;;;;7.89;100.00;96144.69;5056533;28;20205;-71
2022/11/29 11:03:37;;;;;;;33.37;15.20;;;;;;;7.96;100.00;96142.25;5057025;28;20691;-71
2022/11/29 11:06:08;;;;;;;34.00;13.83;;;;;;;7.95;100.00;96145.84;5056304;28;20224;-71
2022/11/29 11:08:35;;;;;;;33.33;12.77;;;;;;;7.90;100.00;96153.38;5056328;28;20216;-71
2022/11/29 11:11:03;;;;;;;34.23;14.07;;;;;;;7.83;100.00;96149.78;5056327;28;20205;-72
2022/11/29 11:13:31;;;;;;;31.90;13.80;;;;;;;7.86;100.00;96138.94;5056378;28;20600;-72
2022/11/29 11:16:07;;;;;;;31.10;13.60;;;;;;;7.83;100.00;96152.41;5056800;28;20220;-71
2022/11/29 11:18:34;;;;;;;33.20;13.60;;;;;;;7.73;100.00;96145.69;5056428;28;20270;-72
2022/11/29 11:21:01;;;;;;;29.53;12.23;;;;;;;7.73;100.00;96148.31;5056826;28;20204;-72
2022/11/29 11:23:31;;;;;;;28.70;13.10;;;;;;;7.87;100.00;96143.22;5057630;28;20257;-71
2022/11/29 11:26:01;;;;;;;32.80;13.93;;;;;;;7.89;100.00;96138.63;5056434;28;20622;-72
2022/11/29 11:28:31;;;;;;;34.67;13.97;;;;;;;7.83;100.00;96141.91;5056137;28;20786;-72
2022/11/29 11:31:00;;;;;;;32.77;14.03;;;;;;;7.93;100.00;96150.47;5056664;28;20208;-72
2022/11/29 11:33:29;;;;;;;29.03;12.67;;;;;;;7.80;100.00;96141.41;5056318;28;20208;-71
2022/11/29 11:36:05;;;;;;;28.37;12.70;;;;;;;7.83;100.00;96144.53;5056297;28;20228;-71
2022/11/29 11:38:33;;;;;;;33.70;13.00;;;;;;;7.75;100.00;96144.53;5056705;28;20196;-71
2022/11/29 11:41:14;;;;;;;30.07;13.97;;;;;;;7.80;100.00;96146.66;5056367;28;20234;-72
2022/11/29 11:43:41;;;;;;;24.53;11.63;;;;;;;7.72;100.00;96138.78;5054379;28;20200;-71
2022/11/29 11:46:08;;;;;;;29.53;13.47;;;;;;;7.74;100.00;96142.88;5055385;28;20228;-71
2022/11/29 11:48:34;;;;;;;22.60;10.23;;;;;;;7.87;100.00;96148.47;5056232;28;20220;-72
2022/11/29 11:51:02;;;;;;;24.70;10.57;;;;;;;7.79;100.00;96151.09;5055361;28;20207;-72
2022/11/29 11:53:32;;;;;;;29.53;10.57;;;;;;;7.94;100.00;96147.66;5056426;28;20258;-72